Central Oregon RPC :: ALTURUS, CA A

liberation: 2021-05-09  07:00     latitude: 41.489838     longitude: -120.548417 67 birds
# LOFT PRING MILES ARRIVAL SPEED ToWin
1 ROCKY TOP AU19-CORP-4431 192.104 2021-05-09 11:27:20.712 1264.668 00:00:00
2 TIM GRAVES AU17-FHI-0202 191.057 2021-05-09 11:26:52.063 1260.029 00:00:59
3 STEELE LOFT AU20-CORP-5011 198.722 2021-05-09 11:39:23.950 1251.796 00:02:51
4 STEELE LOFT AU19-CORP-4024 198.722 2021-05-09 11:40:00.519 1249.072 00:03:27
5 TOPIGEONUSA AU19-CORP-4908 198.536 2021-05-09 11:39:55.525 1248.272 00:03:38
6 TOPIGEONUSA AU19-CORP-5134 198.536 2021-05-09 11:40:17.544 1246.637 00:04:00
7 ROCKY TOP AU19-ARPU-29027 192.104 2021-05-09 11:31:56.318 1243.306 00:04:36
8 ROCKY TOP AU20-CORP-4433 192.104 2021-05-09 11:31:58.859 1243.112 00:04:38
9 ROCKY TOP AU19-CORP-4465 192.104 2021-05-09 11:31:58.971 1243.104 00:04:38
10 STEELE LOFT AU20-CORP-5002 198.722 2021-05-09 11:42:23.969 1238.497 00:05:51
11 STEELE LOFT AU19-CORP-4039 198.722 2021-05-09 11:42:30.263 1238.037 00:05:57
12 ROCKY TOP AU19-ARPU-29022 192.104 2021-05-09 11:33:09.763 1237.734 00:05:49
13 ROCKY TOP AU18-CORP-3311 192.104 2021-05-09 11:33:10.132 1237.706 00:05:49
14 AMERICAN LOFT AU19-CORP-4746 197.089 2021-05-09 11:40:20.436 1237.341 00:06:03
15 STEELE LOFT AU20-CORP-5080 198.722 2021-05-09 11:42:41.912 1237.187 00:06:09
16 STEELE LOFT AU19-JEDD-1973 198.722 2021-05-09 11:42:45.146 1236.951 00:06:12
17 TOPIGEONUSA AU19-CORP-5140 198.536 2021-05-09 11:42:34.675 1236.554 00:06:17
18 TOPIGEONUSA AU19-CORP-5124 198.536 2021-05-09 11:42:34.974 1236.533 00:06:17
19 STEELE LOFT AU20-CORP-5017 198.722 2021-05-09 11:42:50.978 1236.526 00:06:18
20 TOPIGEONUSA AU18-CORP-4272 198.536 2021-05-09 11:42:36.294 1236.436 00:06:19
21 TOPIGEONUSA AU19-CORP-4938 198.536 2021-05-09 11:42:50.075 1235.432 00:06:32
22 TOPIGEONUSA AU17-CAPT-0054 198.536 2021-05-09 11:44:29.677 1228.224 00:08:12
23 ROCKY TOP AU20-ARPU-28101 192.104 2021-05-09 11:35:38.899 1226.573 00:08:18
24 ROCKY TOP AU20-CORP-4404 192.104 2021-05-09 11:36:10.857 1224.208 00:08:50
25 RUETER FAMILY LOFT AU20-CORP-4580 226.862 2021-05-09 12:27:27.604 1219.316 00:11:45
26 TIM GRAVES AU15-ARPU-14510 191.057 2021-05-09 11:38:50.322 1205.934 00:12:57
27 AMERICAN LOFT AU19-CORP-4647 197.089 2021-05-09 11:47:48.929 1205.206 00:13:32
28 STEELE LOFT AU20-CORP-5043 198.722 2021-05-09 11:51:19.416 1200.558 00:14:46
29 AMERICAN LOFT AU19-CORP-4605 197.089 2021-05-09 11:50:45.172 1193.030 00:16:28
30 RUETER FAMILY LOFT AU18-CORP-2744 226.862 2021-05-09 12:34:51.525 1192.376 00:19:08
31 RUETER FAMILY LOFT AU19-CORP-5367 226.862 2021-05-09 12:36:00.256 1188.311 00:20:17
32 AMERICAN LOFT AU16-CORP-7539 197.089 2021-05-09 12:00:07.185 1155.795 00:25:50
33 TIM GRAVES AU20-CORP-4720 191.057 2021-05-09 12:06:01.436 1098.807 00:40:08
34 STEELE LOFT AU19-CORP-4009 198.722 2021-05-09 12:18:27.492 1098.263 00:41:54
35 STEELE LOFT AU20-CORP-5018 198.722 2021-05-09 12:18:31.256 1098.047 00:41:58
36 AMERICAN LOFT AU19-CORP-4735 197.089 2021-05-09 12:19:35.086 1085.399 00:45:18
37 TIM GRAVES AU17-CORP-0879 191.057 2021-05-09 12:11:54.405 1078.082 00:46:01
38 AMERICAN LOFT AU19-CORP-4652 197.089 2021-05-09 12:28:22.512 1056.343 00:54:06
39 ROCKY TOP AU19-CORP-4421 192.104 2021-05-09 12:21:03.588 1053.084 00:53:43
40 RUETER FAMILY LOFT AU20-CORP-4579 226.862 2021-05-09 13:47:13.937 980.466 01:31:31
41 AMERICAN LOFT AU16-CORP-7444 197.089 2021-05-09 12:57:34.292 970.091 01:23:17
42 ROCKY TOP AU20-CORP-4451 192.104 2021-05-09 13:05:58.857 923.826 01:38:38
43 RUETER FAMILY LOFT AU19-CORP-5377 226.862 2021-05-09 14:12:18.157 923.606 01:56:35
44 TIM GRAVES AU17-CORP-2034 191.057 2021-05-09 13:04:07.751 923.467 01:38:14
45 RUETER FAMILY LOFT AU19-CORP-5310 226.862 2021-05-09 14:12:59.639 922.132 01:57:17
46 TOPIGEONUSA AU20-CORP-4325 198.536 2021-05-09 13:19:36.488 920.483 01:43:19
47 STEELE LOFT AU19-CORP-4004 198.722 2021-05-09 13:20:12.666 919.886 01:43:39
48 TIM GRAVES AU17-FHI-1014 191.057 2021-05-09 13:07:06.537 915.971 01:41:13
49 STEELE LOFT AU20-CORP-5012 198.722 2021-05-09 13:22:13.455 915.041 01:45:40
50 TOPIGEONUSA AU20-CORP-4868 198.536 2021-05-09 13:22:31.827 913.451 01:46:14
51 RUETER FAMILY LOFT AU20-OTC-110 226.862 2021-05-09 14:18:33.703 910.425 02:02:51
52 AMERICAN LOFT AU19-CORP-4745 197.089 2021-05-09 13:21:50.853 908.417 01:47:34
53 AMERICAN LOFT AU19-CORP-4751 197.089 2021-05-09 13:21:54.825 908.260 01:47:38
54 AMERICAN LOFT AU19-CORP-4699 197.089 2021-05-09 13:27:07.815 896.021 01:52:51
55 RUETER FAMILY LOFT AU19-CORP-5456 226.862 2021-05-09 15:37:08.148 772.094 03:21:25
56 TOPIGEONUSA AU19-CORP-5151 198.536 2021-05-09 14:55:35.849 734.703 03:19:18
57 RUETER FAMILY LOFT AU19-CORP-5344 226.862 2021-05-09 16:24:21.258 707.494 04:08:38
58 AMERICAN LOFT AU18-CORP-2549 197.089 2021-05-09 15:46:54.123 658.333 04:12:37
59 RUETER FAMILY LOFT AU19-CORP-5438 226.862 2021-05-09 17:08:44.046 655.914 04:53:01
60 ROCKY TOP AU18-CORP-3385 192.104 2021-05-09 16:11:50.020 612.690 04:44:29
61 RUETER FAMILY LOFT AU19-CORP-5413 226.862 2021-05-09 18:47:51.727 564.061 06:32:09
62 ROCKY TOP AU14-CORP-1542 192.104 2021-05-09 18:55:28.777 472.554 07:28:08
AMERICAN LOFT AU17-CORP-0062 0 0000-00-00 00:00:00.000 0.000 00:00:00
RUETER FAMILY LOFT AU20-CORP-4683 0 0000-00-00 00:00:00.000 0.000 00:00:00
TIM GRAVES AU17-CORP-0834 0 0000-00-00 00:00:00.000 0.000 00:00:00
TOPIGEONUSA AU20-CORP-4377 0 0000-00-00 00:00:00.000 0.000 00:00:00
TOPIGEONUSA AU20-CORP-4830 0 0000-00-00 00:00:00.000 0.000 00:00:00